Terminal Aerodrome Forecast
Issued by NWS Omaha/Valley, NE

Home | Current Version | Previous Version | Graphics & Text | Print | Product List | Glossary On
Versions: 1 2 3 4 5 6 7 8 9 10 11 12 13 14 15 16 17
000
FTUS43 KOAX 270034 AAD
TAFOFK
TAF AMD
KOFK 270034Z 2701/2724 08007KT P6SM BKN025 OVC090
     FM270500 10005KT 6SM BR OVC015
     FM270800 VRB03KT 4SM BR OVC007
      TEMPO 2709/2713 1SM BR OVC003
     FM271600 18005KT P6SM BKN015
     FM271700 18006KT P6SM SCT020 SCT100=

USA.gov is the U.S. government's official web portal to all federal, state and local government web resources and services.